createdAt,value
2022-08-18T00:01:16.876Z,5.30
2022-08-18T00:03:56.295Z,4.77
2022-08-18T00:06:29.781Z,5.93
2022-08-18T00:08:59.708Z,4.73
2022-08-18T00:11:28.491Z,5.67
2022-08-18T00:14:21.682Z,5.60
2022-08-18T00:16:53.299Z,5.00
2022-08-18T00:19:45.600Z,4.80
2022-08-18T00:22:14.997Z,5.43
2022-08-18T00:24:48.560Z,5.50
2022-08-18T00:27:21.959Z,5.10
2022-08-18T00:29:55.313Z,5.07
2022-08-18T00:32:26.060Z,5.73
2022-08-18T00:34:55.028Z,5.73
2022-08-18T00:37:24.963Z,5.10
2022-08-18T00:39:54.371Z,5.13
2022-08-18T00:42:28.143Z,5.37
2022-08-18T00:45:03.184Z,5.10
2022-08-18T00:47:41.827Z,5.17
2022-08-18T00:50:17.031Z,5.37
2022-08-18T00:52:51.588Z,4.93
2022-08-18T00:55:20.431Z,5.57
2022-08-18T00:57:53.441Z,5.10
2022-08-18T01:00:23.574Z,5.23
2022-08-18T01:02:55.637Z,5.40
2022-08-18T01:05:28.431Z,5.40
2022-08-18T01:07:57.053Z,5.50
2022-08-18T01:10:25.614Z,6.00
2022-08-18T01:12:56.109Z,5.40
2022-08-18T01:15:30.206Z,5.53
2022-08-18T01:18:18.650Z,5.40
2022-08-18T01:21:16.475Z,4.77
2022-08-18T01:23:47.434Z,5.00
2022-08-18T01:26:16.984Z,5.40
2022-08-18T01:28:47.035Z,4.90
2022-08-18T01:31:33.070Z,5.13
2022-08-18T01:34:02.392Z,4.87
2022-08-18T01:36:30.792Z,5.60
2022-08-18T01:39:00.686Z,5.50
2022-08-18T01:41:31.015Z,5.20
2022-08-18T01:44:00.490Z,5.37
2022-08-18T01:46:30.320Z,4.47
2022-08-18T01:49:01.249Z,5.60
2022-08-18T01:51:38.826Z,5.60
2022-08-18T01:54:12.877Z,4.80
2022-08-18T01:56:42.505Z,4.93
2022-08-18T01:59:13.600Z,5.67
2022-08-18T02:01:48.458Z,5.60
2022-08-18T02:04:40.566Z,4.70
2022-08-18T02:07:11.680Z,5.20
2022-08-18T02:09:42.337Z,4.63
2022-08-18T02:12:12.541Z,5.07
2022-08-18T02:14:41.806Z,5.30
2022-08-18T02:17:12.264Z,5.60
2022-08-18T02:19:43.403Z,4.70
2022-08-18T02:22:13.621Z,5.47
2022-08-18T02:24:43.391Z,5.67
2022-08-18T02:27:13.513Z,5.30
2022-08-18T02:29:42.360Z,5.23
2022-08-18T02:32:10.867Z,5.60
2022-08-18T02:34:39.048Z,5.33
2022-08-18T02:37:09.904Z,6.40
2022-08-18T02:39:42.201Z,4.57
2022-08-18T02:42:10.554Z,5.00
2022-08-18T02:44:38.716Z,5.57
2022-08-18T02:47:07.509Z,6.23
2022-08-18T02:49:36.837Z,5.07
2022-08-18T02:52:06.079Z,5.60
2022-08-18T02:54:35.161Z,4.77
2022-08-18T02:57:08.078Z,5.07
2022-08-18T02:59:37.168Z,4.63
2022-08-18T03:02:09.183Z,4.90
2022-08-18T03:04:38.075Z,4.87
2022-08-18T03:07:08.895Z,4.57
2022-08-18T03:09:37.716Z,5.30
2022-08-18T03:12:08.504Z,5.23
2022-08-18T03:14:37.766Z,6.23
2022-08-18T03:17:08.494Z,4.67
2022-08-18T03:19:37.739Z,5.10
2022-08-18T03:22:24.318Z,5.10
2022-08-18T03:24:55.660Z,4.60
2022-08-18T03:27:25.861Z,4.77
2022-08-18T03:29:54.180Z,6.20
2022-08-18T03:32:22.788Z,5.00
2022-08-18T03:34:51.282Z,4.93
2022-08-18T03:37:19.553Z,5.20
2022-08-18T03:39:51.916Z,4.67
2022-08-18T03:42:20.168Z,5.10
2022-08-18T03:44:50.080Z,5.40
2022-08-18T03:47:19.104Z,5.20
2022-08-18T03:49:48.300Z,4.80
2022-08-18T03:52:16.898Z,4.70
2022-08-18T03:54:45.130Z,5.90
2022-08-18T03:57:14.385Z,5.07
2022-08-18T03:59:43.787Z,5.17
2022-08-18T04:02:15.560Z,5.10
2022-08-18T04:04:43.859Z,5.03
2022-08-18T04:07:14.395Z,5.23
2022-08-18T04:09:43.097Z,5.03
2022-08-18T04:12:15.410Z,5.60
2022-08-18T04:14:49.062Z,5.83
2022-08-18T04:17:24.552Z,4.90
2022-08-18T04:19:53.258Z,4.80
2022-08-18T04:22:21.653Z,4.87
2022-08-18T04:24:50.849Z,5.33
2022-08-18T04:27:19.341Z,5.00
2022-08-18T04:29:47.728Z,5.20
2022-08-18T04:32:16.205Z,5.10
2022-08-18T04:34:45.891Z,5.03
2022-08-18T04:37:15.423Z,5.30
2022-08-18T04:39:44.110Z,5.10
2022-08-18T04:42:12.685Z,5.50
2022-08-18T04:44:41.683Z,5.40
2022-08-18T04:47:10.463Z,5.60
2022-08-18T04:49:39.004Z,5.37
2022-08-18T04:52:40.671Z,5.23
2022-08-18T04:55:10.891Z,5.23
2022-08-18T04:57:39.154Z,5.57
2022-08-18T05:00:10.948Z,5.00
2022-08-18T05:02:39.145Z,5.27
2022-08-18T05:05:08.605Z,5.30
2022-08-18T05:07:38.341Z,5.60
2022-08-18T05:10:07.129Z,5.50
2022-08-18T05:12:35.357Z,4.77
2022-08-18T05:15:03.732Z,5.07
2022-08-18T05:17:32.100Z,5.20
2022-08-18T05:20:01.057Z,5.60
2022-08-18T05:22:31.810Z,5.20
2022-08-18T05:25:01.787Z,5.00
2022-08-18T05:27:35.253Z,5.87
2022-08-18T05:30:03.916Z,5.10
2022-08-18T05:32:47.385Z,5.30
2022-08-18T05:35:24.390Z,6.17
2022-08-18T05:38:31.477Z,6.90
2022-08-18T05:41:14.034Z,6.33
2022-08-18T05:43:51.724Z,6.47
2022-08-18T05:46:25.860Z,6.33
2022-08-18T05:48:54.052Z,6.90
2022-08-18T05:51:29.519Z,6.63
2022-08-18T05:54:18.252Z,6.83
2022-08-18T05:56:51.128Z,6.60
2022-08-18T05:59:26.287Z,6.90
2022-08-18T06:02:00.397Z,7.23
2022-08-18T06:04:37.385Z,6.67
2022-08-18T06:07:10.025Z,6.53
2022-08-18T06:09:44.797Z,6.40
2022-08-18T06:12:22.932Z,6.20
2022-08-18T06:14:52.611Z,6.40
2022-08-18T06:17:47.573Z,6.50
2022-08-18T06:20:27.239Z,6.30
2022-08-18T06:23:04.609Z,5.70
2022-08-18T06:25:45.591Z,5.87
2022-08-18T06:28:17.162Z,6.27
2022-08-18T06:30:51.753Z,6.13
2022-08-18T06:33:45.989Z,6.40
2022-08-18T06:36:23.047Z,5.77
2022-08-18T06:39:03.516Z,6.70
2022-08-18T06:41:42.905Z,6.50
2022-08-18T06:44:22.134Z,6.60
2022-08-18T06:46:54.157Z,6.80
2022-08-18T06:49:34.814Z,8.00
2022-08-18T06:52:22.172Z,7.30
2022-08-18T06:54:52.124Z,7.00
2022-08-18T06:57:26.278Z,7.30
2022-08-18T07:00:23.996Z,7.07
2022-08-18T07:02:55.187Z,6.83
2022-08-18T07:05:26.679Z,7.00
2022-08-18T07:08:13.058Z,7.03
2022-08-18T07:10:44.568Z,6.40
2022-08-18T07:13:26.342Z,6.83
2022-08-18T07:15:57.587Z,6.10
2022-08-18T07:18:28.407Z,7.57
2022-08-18T07:21:00.689Z,6.53
2022-08-18T07:23:33.878Z,6.17
2022-08-18T07:26:10.453Z,5.83
2022-08-18T07:28:41.800Z,5.80
2022-08-18T07:31:21.118Z,7.07
2022-08-18T07:33:55.895Z,6.33
2022-08-18T07:36:29.883Z,6.70
2022-08-18T07:39:02.967Z,6.00
2022-08-18T07:41:36.759Z,6.70
2022-08-18T07:44:18.613Z,5.90
2022-08-18T07:46:56.028Z,6.73
2022-08-18T07:49:27.472Z,6.10
2022-08-18T07:52:00.948Z,6.33
2022-08-18T07:54:49.278Z,6.50
2022-08-18T07:57:26.092Z,6.30
2022-08-18T08:00:02.454Z,6.57
2022-08-18T08:02:54.948Z,6.50
2022-08-18T08:05:43.071Z,5.83
2022-08-18T08:08:29.423Z,6.50
2022-08-18T08:11:10.021Z,6.93
2022-08-18T08:13:56.136Z,6.10
2022-08-18T08:16:37.580Z,6.17
2022-08-18T08:19:56.369Z,6.07
2022-08-18T08:22:20.450Z,5.70
2022-08-18T08:25:00.610Z,7.83
2022-08-18T08:27:36.966Z,7.10
2022-08-18T08:30:10.462Z,5.97
2022-08-18T08:32:47.960Z,6.90
2022-08-18T08:35:49.542Z,6.30
2022-08-18T08:38:39.147Z,7.40
2022-08-18T08:41:13.395Z,7.50
2022-08-18T08:43:46.563Z,6.57
2022-08-18T08:46:21.032Z,7.77
2022-08-18T08:48:57.579Z,6.43
2022-08-18T08:51:35.348Z,5.50
2022-08-18T08:54:12.091Z,6.17
2022-08-18T08:56:46.075Z,6.33
2022-08-18T08:59:17.222Z,6.80
2022-08-18T09:01:55.224Z,7.10
2022-08-18T09:04:32.826Z,6.50
2022-08-18T09:07:14.379Z,6.80
2022-08-18T09:10:22.532Z,6.30
2022-08-18T09:13:09.515Z,6.53
2022-08-18T09:15:54.498Z,6.10
2022-08-18T09:18:45.032Z,8.30
2022-08-18T09:21:30.776Z,8.50
2022-08-18T09:24:17.895Z,6.87
2022-08-18T09:26:51.751Z,7.10
2022-08-18T09:29:25.434Z,6.83
2022-08-18T09:32:30.964Z,5.60
2022-08-18T09:35:11.370Z,5.10
2022-08-18T09:37:48.743Z,5.43
2022-08-18T09:41:02.047Z,5.73
2022-08-18T09:43:37.202Z,6.37
2022-08-18T09:46:08.106Z,6.50
2022-08-18T09:48:43.719Z,6.30
2022-08-18T09:51:24.698Z,6.03
2022-08-18T09:54:21.572Z,6.67
2022-08-18T09:57:27.213Z,6.23
2022-08-18T10:03:31.345Z,7.60
2022-08-18T10:06:20.588Z,7.63
2022-08-18T10:09:18.046Z,6.77
2022-08-18T10:12:06.406Z,8.90
2022-08-18T10:15:27.043Z,7.70
2022-08-18T10:18:35.638Z,7.80
2022-08-18T10:21:20.914Z,8.10
2022-08-18T10:24:14.788Z,7.30
2022-08-18T10:27:33.964Z,9.27
2022-08-18T10:30:03.662Z,9.30
2022-08-18T10:32:54.687Z,8.70
2022-08-18T10:35:55.902Z,9.57
2022-08-18T10:38:40.757Z,7.67
2022-08-18T10:41:25.105Z,9.27
2022-08-18T10:43:57.759Z,10.70
2022-08-18T10:49:26.330Z,9.83
2022-08-18T10:59:04.589Z,11.30
2022-08-18T11:01:57.093Z,12.37
2022-08-18T11:04:34.644Z,11.63
2022-08-18T11:07:10.918Z,11.53
2022-08-18T11:09:42.204Z,10.70
2022-08-18T11:12:41.351Z,11.67
2022-08-18T11:15:22.922Z,10.77
2022-08-18T11:18:10.458Z,11.03
2022-08-18T11:20:40.648Z,12.33
2022-08-18T11:23:16.945Z,13.20
2022-08-18T11:25:45.964Z,12.70
2022-08-18T11:28:20.464Z,13.47
2022-08-18T11:30:52.477Z,12.03
2022-08-18T11:33:24.577Z,13.40
2022-08-18T11:35:58.289Z,11.40
2022-08-18T11:38:29.561Z,12.00
2022-08-18T11:44:07.489Z,13.67
2022-08-18T11:46:40.793Z,12.63
2022-08-18T11:49:18.217Z,14.73
2022-08-18T11:51:57.962Z,14.87
2022-08-18T11:54:50.305Z,11.17
2022-08-18T11:57:46.868Z,15.00
2022-08-18T12:00:43.250Z,16.40
2022-08-18T12:03:21.106Z,14.90
2022-08-18T12:05:56.340Z,14.60
2022-08-18T12:08:56.158Z,14.57
2022-08-18T12:11:26.474Z,17.97
2022-08-18T12:14:31.702Z,15.53
2022-08-18T12:16:57.021Z,16.60
2022-08-18T12:19:28.041Z,14.80
2022-08-18T12:21:59.254Z,13.43
2022-08-18T12:24:36.987Z,17.10
2022-08-18T12:27:12.291Z,17.47
2022-08-18T12:29:50.654Z,16.17
2022-08-18T12:32:50.138Z,14.93
2022-08-18T12:35:12.650Z,17.63
2022-08-18T12:38:11.469Z,15.73
2022-08-18T12:40:33.183Z,14.03
2022-08-18T12:43:01.753Z,15.60
2022-08-18T12:45:31.171Z,14.50
2022-08-18T12:48:02.447Z,13.67
2022-08-18T12:50:36.292Z,14.90
2022-08-18T12:53:07.748Z,15.07
2022-08-18T12:55:44.048Z,16.10
2022-08-18T12:58:13.637Z,15.13
2022-08-18T13:00:43.904Z,14.50
2022-08-18T13:03:13.727Z,16.80
2022-08-18T13:05:42.459Z,17.97
2022-08-18T13:08:30.126Z,17.97
2022-08-18T13:11:14.755Z,20.23
2022-08-18T13:13:52.680Z,17.93
2022-08-18T13:16:30.614Z,20.70
2022-08-18T13:19:10.912Z,20.10
2022-08-18T13:21:41.318Z,18.83
2022-08-18T13:24:10.386Z,18.13
2022-08-18T13:29:45.530Z,16.70
2022-08-18T13:32:14.587Z,21.07
2022-08-18T13:34:50.051Z,21.40
2022-08-18T13:37:26.462Z,22.87
2022-08-18T13:39:56.526Z,24.53
2022-08-18T13:42:28.787Z,24.93
2022-08-18T13:45:23.011Z,24.33
2022-08-18T13:47:49.656Z,24.60
2022-08-18T13:50:29.583Z,27.07
2022-08-18T13:53:00.958Z,23.90
2022-08-18T13:55:29.846Z,25.80
2022-08-18T13:57:58.053Z,25.20
2022-08-18T14:00:31.074Z,26.63
2022-08-18T14:03:03.421Z,26.43
2022-08-18T14:05:50.787Z,21.47
2022-08-18T14:08:19.837Z,21.80
2022-08-18T14:10:50.311Z,24.43
2022-08-18T14:13:20.479Z,21.80
2022-08-18T14:15:54.749Z,18.40
2022-08-18T14:18:29.062Z,20.53
2022-08-18T14:21:23.258Z,21.80
2022-08-18T14:24:10.300Z,21.60
2022-08-18T14:26:51.362Z,17.83
2022-08-18T14:29:46.558Z,17.50
2022-08-18T14:32:17.857Z,17.83
2022-08-18T14:34:51.170Z,18.80
2022-08-18T14:37:30.208Z,21.83
2022-08-18T14:39:58.613Z,22.43
2022-08-18T14:42:33.025Z,16.23
2022-08-18T14:45:17.606Z,21.10
2022-08-18T14:47:57.733Z,18.00
2022-08-18T14:50:26.327Z,16.90
2022-08-18T14:52:56.003Z,18.03
2022-08-18T14:55:24.230Z,17.53
2022-08-18T14:57:53.410Z,13.43
2022-08-18T15:00:22.927Z,17.47
2022-08-18T15:03:01.371Z,15.73
2022-08-18T15:05:33.887Z,19.00
2022-08-18T15:08:05.114Z,15.20
2022-08-18T15:10:33.930Z,15.83
2022-08-18T15:13:02.305Z,16.20
2022-08-18T15:15:50.867Z,15.00
2022-08-18T15:18:22.739Z,16.63
2022-08-18T15:21:10.264Z,15.00
2022-08-18T15:24:19.413Z,14.53
2022-08-18T15:26:51.454Z,15.00
2022-08-18T15:29:27.827Z,13.47
2022-08-18T15:32:02.228Z,14.10
2022-08-18T15:34:46.265Z,13.70
2022-08-18T15:37:19.884Z,13.50
2022-08-18T15:39:55.620Z,14.03
2022-08-18T15:42:24.690Z,14.10
2022-08-18T15:44:53.554Z,13.10
2022-08-18T15:47:22.284Z,13.80
2022-08-18T15:49:54.799Z,13.37
2022-08-18T15:52:25.884Z,13.90
2022-08-18T15:55:02.323Z,13.90
2022-08-18T15:57:39.479Z,14.00
2022-08-18T16:00:12.178Z,13.43
2022-08-18T16:02:44.538Z,13.67
2022-08-18T16:05:18.097Z,13.87
2022-08-18T16:07:47.767Z,12.70
2022-08-18T16:10:19.414Z,13.70
2022-08-18T16:12:48.715Z,13.67
2022-08-18T16:15:19.243Z,14.37
2022-08-18T16:17:48.596Z,15.70
2022-08-18T16:20:18.794Z,15.60
2022-08-18T16:22:47.663Z,14.03
2022-08-18T16:25:17.827Z,16.80
2022-08-18T16:27:47.913Z,15.17
2022-08-18T16:30:18.631Z,16.70
2022-08-18T16:32:47.330Z,16.67
2022-08-18T16:35:15.790Z,14.70
2022-08-18T16:37:44.441Z,15.63
2022-08-18T16:40:13.897Z,17.10
2022-08-18T16:42:43.552Z,16.27
2022-08-18T16:45:13.306Z,16.60
2022-08-18T16:47:42.479Z,17.40
2022-08-18T16:50:13.236Z,20.90
2022-08-18T16:52:42.196Z,16.43
2022-08-18T16:55:12.855Z,18.53
2022-08-18T16:57:59.267Z,17.37
2022-08-18T17:00:51.502Z,18.27
2022-08-18T17:03:41.947Z,15.00
2022-08-18T17:06:12.267Z,17.90
2022-08-18T17:08:41.982Z,17.17
2022-08-18T17:11:12.517Z,16.83
2022-08-18T17:13:42.212Z,15.97
2022-08-18T17:16:12.215Z,13.70
2022-08-18T17:18:41.374Z,13.30
2022-08-18T17:21:12.139Z,12.10
2022-08-18T17:23:40.939Z,11.30
2022-08-18T17:26:16.526Z,12.10
2022-08-18T17:28:52.494Z,11.17
2022-08-18T17:31:24.832Z,16.07
2022-08-18T17:33:57.460Z,15.00
2022-08-18T17:36:33.449Z,14.43
2022-08-18T17:39:05.314Z,14.30
2022-08-18T17:41:57.143Z,14.93
2022-08-18T17:44:31.177Z,13.93
2022-08-18T17:47:03.790Z,15.27
2022-08-18T17:50:04.188Z,18.03
2022-08-18T17:52:45.789Z,15.30
2022-08-18T17:55:26.589Z,17.60
2022-08-18T17:58:01.812Z,16.83
2022-08-18T18:00:32.693Z,18.53
2022-08-18T18:03:02.471Z,16.50
2022-08-18T18:05:36.871Z,17.30
2022-08-18T18:08:06.214Z,18.33
2022-08-18T18:11:02.232Z,15.20
2022-08-18T18:13:32.616Z,15.40
2022-08-18T18:16:19.639Z,14.57
2022-08-18T18:19:01.094Z,14.40
2022-08-18T18:22:01.428Z,13.77
2022-08-18T18:24:24.073Z,14.33
2022-08-18T18:26:53.267Z,14.63
2022-08-18T18:29:29.259Z,15.10
2022-08-18T18:32:01.965Z,13.70
2022-08-18T18:34:39.847Z,14.27
2022-08-18T18:37:26.917Z,13.73
2022-08-18T18:39:58.286Z,13.40
2022-08-18T18:42:30.136Z,12.83
2022-08-18T18:45:01.379Z,12.93
2022-08-18T18:47:47.407Z,14.67
2022-08-18T18:50:24.838Z,13.70
2022-08-18T18:53:09.357Z,13.23
2022-08-18T18:55:42.294Z,12.23
2022-08-18T18:58:27.336Z,14.30
2022-08-18T19:00:59.871Z,14.40
2022-08-18T19:03:38.158Z,14.33
2022-08-18T19:06:18.328Z,13.80
2022-08-18T19:08:55.211Z,12.90
2022-08-18T19:11:32.596Z,13.37
2022-08-18T19:14:07.336Z,14.10
2022-08-18T19:16:42.158Z,12.70
2022-08-18T19:19:37.772Z,12.00
2022-08-18T19:22:14.102Z,13.90
2022-08-18T19:24:52.022Z,12.43
2022-08-18T19:27:30.351Z,13.30
2022-08-18T19:30:07.184Z,13.20
2022-08-18T19:32:40.774Z,13.23
2022-08-18T19:35:12.256Z,12.67
2022-08-18T19:38:04.422Z,12.10
2022-08-18T19:40:45.038Z,12.47
2022-08-18T19:43:27.634Z,12.57
2022-08-18T19:46:00.637Z,13.47
2022-08-18T19:48:35.036Z,14.37
2022-08-18T19:51:10.936Z,14.83
2022-08-18T19:53:58.132Z,14.53
2022-08-18T19:56:37.574Z,14.00
2022-08-18T19:59:22.840Z,14.90
2022-08-18T20:02:06.855Z,14.83
2022-08-18T20:04:48.686Z,14.40
2022-08-18T20:07:38.442Z,15.00
2022-08-18T20:10:31.459Z,12.70
2022-08-18T20:13:32.941Z,11.60
2022-08-18T20:16:15.027Z,12.17
2022-08-18T20:18:45.342Z,12.03
2022-08-18T20:21:39.780Z,13.27
2022-08-18T20:24:33.175Z,12.20
2022-08-18T20:27:35.142Z,12.30
2022-08-18T20:30:28.518Z,13.80
2022-08-18T20:33:34.671Z,13.40
2022-08-18T20:36:14.044Z,15.00
2022-08-18T20:38:46.518Z,13.03
2022-08-18T20:41:39.145Z,13.70
2022-08-18T20:44:29.239Z,12.77
2022-08-18T20:47:21.987Z,13.20
2022-08-18T20:50:04.192Z,12.40
2022-08-18T20:52:40.926Z,12.13
2022-08-18T20:55:21.723Z,14.47
2022-08-18T20:57:55.316Z,14.43
2022-08-18T21:00:27.376Z,14.43
2022-08-18T21:02:59.392Z,14.67
2022-08-18T21:05:32.609Z,13.90
2022-08-18T21:08:19.720Z,14.93
2022-08-18T21:10:49.846Z,14.60
2022-08-18T21:13:30.592Z,14.50
2022-08-18T21:15:59.811Z,13.50
2022-08-18T21:18:29.547Z,14.10
2022-08-18T21:20:59.740Z,15.10
2022-08-18T21:23:30.771Z,14.57
2022-08-18T21:26:06.510Z,14.10
2022-08-18T21:28:37.464Z,15.40
2022-08-18T21:31:30.814Z,14.17
2022-08-18T21:34:01.115Z,14.97
2022-08-18T21:36:31.674Z,12.90
2022-08-18T21:39:07.560Z,14.10
2022-08-18T21:41:42.663Z,13.40
2022-08-18T21:44:18.005Z,14.00
2022-08-18T21:46:47.470Z,14.43
2022-08-18T21:49:26.199Z,16.40
2022-08-18T21:51:54.575Z,14.30
2022-08-18T21:54:26.401Z,13.00
2022-08-18T21:57:20.237Z,13.30
2022-08-18T22:00:19.619Z,13.70
2022-08-18T22:02:51.601Z,14.50
2022-08-18T22:05:58.002Z,13.67
2022-08-18T22:08:22.796Z,14.83
2022-08-18T22:11:59.819Z,13.30
2022-08-18T22:14:36.163Z,13.40
2022-08-18T22:17:28.909Z,14.17
2022-08-18T22:20:17.326Z,13.93
2022-08-18T22:23:04.483Z,14.10
2022-08-18T22:25:32.758Z,13.33
2022-08-18T22:28:01.327Z,15.10
2022-08-18T22:30:29.599Z,14.10
2022-08-18T22:32:57.787Z,14.40
2022-08-18T22:35:29.421Z,13.60
2022-08-18T22:38:00.755Z,13.83
2022-08-18T22:40:29.167Z,14.00
2022-08-18T22:42:58.802Z,14.47
2022-08-18T22:45:28.122Z,14.40
2022-08-18T22:47:57.300Z,14.67
2022-08-18T22:50:25.532Z,15.47
2022-08-18T22:52:54.063Z,13.63
2022-08-18T22:55:24.345Z,14.97
2022-08-18T22:57:55.797Z,13.37
2022-08-18T23:00:25.855Z,14.17
2022-08-18T23:02:54.716Z,14.33
2022-08-18T23:05:23.586Z,13.90
2022-08-18T23:07:52.456Z,13.63
2022-08-18T23:10:21.688Z,13.30
2022-08-18T23:12:51.842Z,13.93
2022-08-18T23:15:21.397Z,14.27
2022-08-18T23:17:49.592Z,13.80
2022-08-18T23:20:19.383Z,13.20
2022-08-18T23:22:48.530Z,15.40
2022-08-18T23:25:17.299Z,13.80
2022-08-18T23:27:45.719Z,14.13
2022-08-18T23:30:15.697Z,13.70
2022-08-18T23:32:44.062Z,14.13
2022-08-18T23:35:12.311Z,15.17
2022-08-18T23:37:41.557Z,14.70
2022-08-18T23:40:13.309Z,13.43
2022-08-18T23:42:41.568Z,13.57
2022-08-18T23:45:11.182Z,12.83
2022-08-18T23:47:41.514Z,14.27
2022-08-18T23:50:10.788Z,13.10
2022-08-18T23:52:39.075Z,14.67
2022-08-18T23:55:10.385Z,13.77
2022-08-18T23:57:38.724Z,15.13
